Time;durP1;ratioP1;P1;durP2;ratioP2;P2;SDS_P1;SDS_P2;PMS_P1;PMS_P2;Temp;Humidity;BMP_temperature;BMP_pressure;BME280_temperature;BME280_humidity;BME280_pressure;Samples;Min_cycle;Max_cycle;Signal;HPM_P1;HPM_P2
2021/10/11 00:01:01;;;;;;;2.43;2.17;;;;;;;8.09;87.55;101238.81;5074818;28;20260;-73
2021/10/11 00:03:27;;;;;;;3.67;3.27;;;;;;;8.16;86.65;101250.22;5093026;28;20166;-73
2021/10/11 00:05:52;;;;;;;5.47;1.43;;;;;;;8.06;87.03;101248.34;5074459;28;20269;-73
2021/10/11 00:08:19;;;;;;;2.10;1.90;;;;;;;8.08;87.12;101238.00;5075096;28;20262;-73
2021/10/11 00:10:44;;;;;;;3.23;2.93;;;;;;;8.06;87.14;101234.72;5092725;28;20577;-73
2021/10/11 00:13:10;;;;;;;2.77;2.57;;;;;;;8.03;87.09;101235.28;5074725;28;20178;-74
2021/10/11 00:15:35;;;;;;;2.57;2.03;;;;;;;8.01;86.62;101241.00;5074293;28;20182;-73
2021/10/11 00:18:00;;;;;;;1.60;1.50;;;;;;;7.96;87.42;101245.66;5092542;28;20619;-74
2021/10/11 00:20:26;;;;;;;3.87;2.27;;;;;;;8.04;86.81;101236.91;5074484;28;20274;-73
2021/10/11 00:22:51;;;;;;;2.17;2.07;;;;;;;8.00;86.81;101233.13;5092712;28;20162;-73
2021/10/11 00:25:17;;;;;;;3.40;3.10;;;;;;;8.00;87.06;101236.66;5074205;28;20620;-73
2021/10/11 00:27:42;;;;;;;2.67;1.77;;;;;;;7.92;87.80;101245.34;5092960;28;20180;-73
2021/10/11 00:30:11;;;;;;;1.50;1.40;;;;;;;7.93;87.90;101248.91;5074163;28;20644;-72
2021/10/11 00:32:37;;;;;;;4.17;2.20;;;;;;;7.95;87.65;101249.44;5092365;28;20178;-73
2021/10/11 00:35:04;;;;;;;2.77;2.57;;;;;;;7.92;88.63;101247.25;5074023;28;20165;-73
2021/10/11 00:37:30;;;;;;;2.60;1.60;;;;;;;7.91;88.80;101249.16;5073943;28;20692;-73
2021/10/11 00:39:56;;;;;;;1.37;1.27;;;;;;;7.89;88.93;101240.47;5092640;28;20235;-74
2021/10/11 00:42:21;;;;;;;3.17;2.23;;;;;;;7.89;89.34;101243.19;5092153;28;20177;-72
2021/10/11 00:44:46;;;;;;;2.23;1.73;;;;;;;7.89;89.60;101240.47;5073662;28;20174;-72
2021/10/11 00:47:12;;;;;;;3.00;2.73;;;;;;;7.92;88.87;101233.66;5074119;28;20188;-73
2021/10/11 00:49:37;;;;;;;1.07;1.07;;;;;;;7.91;89.77;101235.56;5073923;28;20174;-74
2021/10/11 00:52:03;;;;;;;4.53;3.50;;;;;;;7.92;89.85;101230.94;5091966;28;20181;-73
2021/10/11 00:54:29;;;;;;;3.47;3.10;;;;;;;7.90;90.10;101239.38;5091708;28;20182;-72
2021/10/11 00:56:54;;;;;;;3.83;3.53;;;;;;;7.91;91.16;101232.84;5073649;28;20194;-72
2021/10/11 00:59:20;;;;;;;3.50;2.63;;;;;;;7.92;91.41;101231.75;5073538;28;20166;-73
2021/10/11 01:01:45;;;;;;;2.57;2.37;;;;;;;7.91;91.84;101227.41;5073638;28;20182;-73
2021/10/11 01:04:11;;;;;;;2.77;2.33;;;;;;;7.94;92.28;101226.03;5091617;28;20553;-73
2021/10/11 01:06:39;;;;;;;4.73;4.33;;;;;;;7.96;92.17;101223.88;5091717;28;20669;-73
2021/10/11 01:09:06;;;;;;;4.43;3.87;;;;;;;7.94;92.81;101218.69;5073471;28;20181;-72
2021/10/11 01:11:32;;;;;;;4.93;4.47;;;;;;;7.93;93.32;101208.91;5092156;28;20166;-73
2021/10/11 01:13:57;;;;;;;6.37;5.77;;;;;;;7.94;93.35;101207.81;5091358;28;20656;-73
2021/10/11 01:16:23;;;;;;;5.87;4.73;;;;;;;7.96;92.90;101223.88;5073343;28;20169;-73
2021/10/11 01:18:48;;;;;;;5.40;4.90;;;;;;;7.89;93.72;101210.53;5091504;28;20166;-73
2021/10/11 01:21:14;;;;;;;5.03;3.93;;;;;;;7.84;93.85;101213.28;5091606;28;20174;-72
2021/10/11 01:23:39;;;;;;;4.43;4.03;;;;;;;7.82;94.70;101215.47;5073316;28;20706;-73
2021/10/11 01:26:04;;;;;;;4.40;3.80;;;;;;;7.81;95.31;101223.88;5073078;28;20169;-73
2021/10/11 01:28:30;;;;;;;6.50;5.00;;;;;;;7.77;95.35;101229.06;5073057;28;20269;-73
2021/10/11 01:30:56;;;;;;;5.07;4.57;;;;;;;7.77;95.33;101226.34;5073204;28;20176;-73
2021/10/11 01:33:22;;;;;;;4.87;4.47;;;;;;;7.75;95.74;101206.75;5091359;28;20170;-73
2021/10/11 01:35:47;;;;;;;5.27;4.80;;;;;;;7.74;96.13;101210.56;5072862;28;20166;-73
2021/10/11 01:38:13;;;;;;;6.30;5.67;;;;;;;7.75;95.81;101204.84;5072934;28;20216;-73
2021/10/11 01:40:39;;;;;;;6.07;5.40;;;;;;;7.74;96.06;101211.38;5090608;28;20256;-74
2021/10/11 01:43:06;;;;;;;6.23;5.53;;;;;;;7.73;96.61;101208.94;5090992;28;20169;-73
2021/10/11 01:45:32;;;;;;;10.07;6.03;;;;;;;7.72;97.13;101196.44;5090732;28;20573;-73
2021/10/11 01:47:57;;;;;;;6.77;5.40;;;;;;;7.71;98.16;101195.63;5091420;28;20192;-74
2021/10/11 01:50:22;;;;;;;6.83;5.87;;;;;;;7.76;98.29;101189.34;5072783;28;20169;-73
2021/10/11 01:52:48;;;;;;;7.33;6.63;;;;;;;7.85;98.47;101197.78;5072865;28;20272;-73
2021/10/11 01:55:13;;;;;;;9.23;8.33;;;;;;;7.92;99.40;101190.94;5072869;28;20176;-72
2021/10/11 01:57:38;;;;;;;10.07;7.33;;;;;;;8.00;100.00;101186.88;5090850;28;20292;-73
2021/10/11 02:00:07;;;;;;;8.43;7.47;;;;;;;8.11;100.00;101179.50;5072772;28;20174;-74
2021/10/11 02:02:34;;;;;;;11.80;9.60;;;;;;;8.20;100.00;101175.91;5090772;28;20265;-73
2021/10/11 02:04:59;;;;;;;9.73;6.70;;;;;;;8.27;100.00;101179.16;5090703;28;20170;-73
2021/10/11 02:07:25;;;;;;;9.63;8.10;;;;;;;8.30;100.00;101175.06;5072507;28;20192;-73
2021/10/11 02:09:50;;;;;;;7.00;5.97;;;;;;;8.33;100.00;101185.38;5090672;28;20220;-72
2021/10/11 02:12:16;;;;;;;10.80;6.57;;;;;;;8.37;100.00;101175.59;5072435;28;20265;-73
2021/10/11 02:14:41;;;;;;;7.93;7.07;;;;;;;8.39;100.00;101173.44;5072516;28;20205;-74
2021/10/11 02:17:06;;;;;;;11.43;8.97;;;;;;;8.38;100.00;101179.13;5090615;28;20210;-73
2021/10/11 02:19:32;;;;;;;11.07;7.87;;;;;;;8.36;100.00;101168.53;5090960;28;20176;-73
2021/10/11 02:21:57;;;;;;;11.97;8.37;;;;;;;8.35;100.00;101167.72;5072504;28;20185;-73
2021/10/11 02:24:22;;;;;;;12.43;10.13;;;;;;;8.33;100.00;101169.88;5090444;28;20178;-73
2021/10/11 02:26:48;;;;;;;7.13;6.60;;;;;;;8.32;100.00;101164.72;5090402;28;20736;-73
2021/10/11 02:29:13;;;;;;;5.13;4.73;;;;;;;8.32;100.00;101168.25;5090641;28;20170;-73
2021/10/11 02:31:39;;;;;;;4.83;4.37;;;;;;;8.32;100.00;101173.69;5090474;28;20174;-72
2021/10/11 02:34:04;;;;;;;10.27;6.13;;;;;;;8.30;100.00;101162.25;5090253;28;20223;-73
2021/10/11 02:36:29;;;;;;;12.90;9.47;;;;;;;8.27;100.00;101162.81;5090415;28;20185;-73
2021/10/11 02:38:55;;;;;;;6.57;5.43;;;;;;;8.26;100.00;101166.66;5072367;28;20174;-73
2021/10/11 02:41:21;;;;;;;8.03;7.23;;;;;;;8.27;100.00;101162.00;5090380;28;20197;-73
2021/10/11 02:43:47;;;;;;;9.83;8.27;;;;;;;8.28;100.00;101155.47;5090550;28;20174;-73
2021/10/11 02:46:13;;;;;;;12.80;11.40;;;;;;;8.30;100.00;101151.38;5072438;28;20185;-73
2021/10/11 02:48:38;;;;;;;12.00;10.77;;;;;;;8.34;100.00;101144.31;5090322;28;20182;-73
2021/10/11 02:51:04;;;;;;;11.67;7.63;;;;;;;8.39;100.00;101153.53;5072639;28;20260;-73
2021/10/11 02:53:29;;;;;;;11.87;9.73;;;;;;;8.39;100.00;101148.09;5094195;28;20169;-73
2021/10/11 02:55:54;;;;;;;9.07;5.50;;;;;;;8.44;100.00;101156.25;5093835;28;20181;-73
2021/10/11 02:58:20;;;;;;;19.23;12.23;;;;;;;8.48;100.00;101152.69;5094083;28;20233;-73
2021/10/11 03:00:45;;;;;;;14.30;10.20;;;;;;;8.52;100.00;101147.47;5075879;28;20182;-73
2021/10/11 03:03:11;;;;;;;9.83;8.60;;;;;;;8.56;100.00;101154.84;5075946;28;20178;-74
2021/10/11 03:05:36;;;;;;;4.87;4.43;;;;;;;8.61;100.00;101148.53;5075450;28;20189;-73
2021/10/11 03:08:01;;;;;;;10.27;8.50;;;;;;;8.62;100.00;101148.25;5094082;28;20590;-73
2021/10/11 03:10:27;;;;;;;19.93;14.07;;;;;;;8.63;100.00;101157.22;5075986;28;20585;-74
2021/10/11 03:12:52;;;;;;;8.73;7.87;;;;;;;8.63;100.00;101138.97;5093890;28;20649;-72
2021/10/11 03:15:17;;;;;;;9.60;8.50;;;;;;;8.66;100.00;101153.94;5075564;28;20193;-73
2021/10/11 03:17:42;;;;;;;12.13;10.97;;;;;;;8.70;100.00;101143.31;5093756;28;20241;-73
2021/10/11 03:20:08;;;;;;;11.83;9.17;;;;;;;8.74;100.00;101153.38;5094023;28;20205;-72
2021/10/11 03:22:34;;;;;;;10.67;9.67;;;;;;;8.77;100.00;101141.09;5093796;28;20174;-73
2021/10/11 03:25:00;;;;;;;20.63;12.60;;;;;;;8.77;100.00;101141.91;5075119;28;20185;-73
2021/10/11 03:27:25;;;;;;;21.40;11.90;;;;;;;8.79;100.00;101150.59;5093704;28;20174;-73
2021/10/11 03:29:50;;;;;;;19.47;9.77;;;;;;;8.81;100.00;101145.69;5093739;28;20264;-73
2021/10/11 03:32:16;;;;;;;11.07;10.03;;;;;;;8.83;100.00;101151.69;5075372;28;20229;-73
2021/10/11 03:34:41;;;;;;;25.43;17.73;;;;;;;8.84;100.00;101149.78;5093515;28;20208;-73
2021/10/11 03:37:06;;;;;;;13.33;9.23;;;;;;;8.87;100.00;101150.00;5093418;28;20573;-74
2021/10/11 03:39:32;;;;;;;24.60;17.43;;;;;;;8.89;100.00;101147.81;5075200;28;20548;-73
2021/10/11 03:41:57;;;;;;;12.03;10.90;;;;;;;8.90;100.00;101146.72;5093360;28;20268;-74
2021/10/11 03:44:22;;;;;;;11.83;10.67;;;;;;;8.89;100.00;101144.28;5093087;28;20174;-73
2021/10/11 03:46:48;;;;;;;7.43;6.13;;;;;;;8.83;100.00;101148.97;5093297;28;20756;-73
2021/10/11 03:49:13;;;;;;;8.17;7.47;;;;;;;8.75;100.00;101149.53;5093257;28;20178;-73
2021/10/11 03:51:39;;;;;;;10.20;9.30;;;;;;;8.66;100.00;101148.50;5075035;28;20180;-73
2021/10/11 03:54:04;;;;;;;13.43;12.07;;;;;;;8.55;100.00;101158.66;5074831;28;20261;-74
2021/10/11 03:56:29;;;;;;;6.77;6.00;;;;;;;8.46;100.00;101149.44;5074906;28;20269;-74
2021/10/11 03:58:55;;;;;;;9.37;7.20;;;;;;;8.33;100.00;101158.97;5093055;28;20197;-74
2021/10/11 04:01:20;;;;;;;12.50;9.20;;;;;;;8.22;100.00;101156.56;5093053;28;20490;-74
2021/10/11 04:03:46;;;;;;;14.40;9.13;;;;;;;8.10;100.00;101164.22;5074207;28;20174;-74
2021/10/11 04:06:11;;;;;;;19.27;13.63;;;;;;;8.04;100.00;101160.72;5092914;28;20544;-73
2021/10/11 04:08:39;;;;;;;30.20;16.80;;;;;;;7.99;100.00;101166.19;5074723;28;20732;-74
2021/10/11 04:11:11;;;;;;;27.03;18.57;;;;;;;7.98;100.00;101165.38;5074697;28;20173;-74
2021/10/11 04:13:37;;;;;;;14.80;12.07;;;;;;;7.96;100.00;101164.03;5092779;28;20713;-73
2021/10/11 04:16:03;;;;;;;18.00;14.10;;;;;;;7.92;100.00;101173.81;5074603;28;20276;-75
2021/10/11 04:18:29;;;;;;;20.77;13.50;;;;;;;7.91;100.00;101153.13;5074362;28;20258;-73
2021/10/11 04:20:54;;;;;;;15.17;12.57;;;;;;;7.88;100.00;101131.94;5092697;28;20255;-74
2021/10/11 04:23:19;;;;;;;23.27;12.70;;;;;;;7.89;100.00;101133.56;5092280;28;20527;-75
2021/10/11 04:25:45;;;;;;;7.63;7.00;;;;;;;7.87;100.00;101122.94;5074062;28;20625;-75
2021/10/11 04:28:12;;;;;;;9.97;9.10;;;;;;;7.89;100.00;101119.94;5074368;28;20182;-74
2021/10/11 04:30:38;;;;;;;8.63;7.80;;;;;;;7.87;100.00;101116.69;5074297;28;20166;-74
2021/10/11 04:33:04;;;;;;;12.57;8.77;;;;;;;7.88;100.00;101119.13;5092390;28;20259;-73
2021/10/11 04:35:29;;;;;;;13.33;12.10;;;;;;;7.86;100.00;101118.59;5092008;28;20637;-74
2021/10/11 04:37:54;;;;;;;30.40;18.33;;;;;;;7.89;100.00;101128.94;5092114;28;20200;-74
2021/10/11 04:40:20;;;;;;;14.67;13.07;;;;;;;7.90;100.00;101137.91;5074016;28;20227;-74
2021/10/11 04:42:46;;;;;;;24.33;15.10;;;;;;;7.92;100.00;101133.81;5092131;28;20204;-73
2021/10/11 04:45:11;;;;;;;29.37;16.40;;;;;;;7.94;100.00;101125.38;5073659;28;20174;-74
2021/10/11 04:47:37;;;;;;;22.80;13.53;;;;;;;7.99;100.00;101117.22;5073890;28;20653;-74
2021/10/11 04:50:03;;;;;;;10.33;9.23;;;;;;;8.04;100.00;101118.00;5092046;28;20757;-73
2021/10/11 04:52:28;;;;;;;17.57;14.20;;;;;;;8.07;100.00;101125.59;5073779;28;20215;-73
2021/10/11 04:54:54;;;;;;;28.60;16.13;;;;;;;8.13;100.00;101129.13;5091721;28;20182;-74
2021/10/11 04:57:19;;;;;;;35.07;17.63;;;;;;;8.21;100.00;101144.88;5091885;28;20223;-73
2021/10/11 04:59:45;;;;;;;23.80;14.73;;;;;;;8.28;100.00;101125.53;5073728;28;20602;-74
2021/10/11 05:02:10;;;;;;;16.27;12.43;;;;;;;8.32;100.00;101124.69;5091776;28;20170;-74
2021/10/11 05:04:35;;;;;;;20.60;15.73;;;;;;;8.34;100.00;101138.03;5073303;28;20173;-74
2021/10/11 05:07:01;;;;;;;15.37;12.20;;;;;;;8.37;100.00;101131.22;5073427;28;20272;-73
2021/10/11 05:09:26;;;;;;;23.40;13.10;;;;;;;8.39;100.00;101124.44;5091698;28;20228;-74
2021/10/11 05:11:51;;;;;;;21.07;16.63;;;;;;;8.43;100.00;101124.66;5073400;28;20209;-74
2021/10/11 05:14:17;;;;;;;19.00;15.83;;;;;;;8.48;100.00;101146.41;5072545;28;20204;-74
2021/10/11 05:16:42;;;;;;;20.53;13.40;;;;;;;8.52;100.00;101139.31;5073618;28;20561;-74
2021/10/11 05:19:09;;;;;;;17.83;11.73;;;;;;;8.53;100.00;101138.22;5078079;28;20181;-74
2021/10/11 05:21:35;;;;;;;12.80;7.20;;;;;;;8.57;100.00;101148.28;5098375;28;20614;-74
2021/10/11 05:24:00;;;;;;;22.70;15.47;;;;;;;8.61;100.00;101192.13;5074149;28;20178;-75
2021/10/11 05:26:26;;;;;;;14.67;9.00;;;;;;;8.63;100.00;101209.00;5091916;28;20173;-75
2021/10/11 05:28:53;;;;;;;11.47;10.30;;;;;;;8.64;100.00;101154.22;5091609;28;20182;-75
2021/10/11 05:31:19;;;;;;;25.43;15.07;;;;;;;8.67;100.00;101152.84;5091722;28;20181;-75
2021/10/11 05:33:44;;;;;;;17.80;9.80;;;;;;;8.70;100.00;101162.38;5072873;28;20170;-74
2021/10/11 05:36:09;;;;;;;13.80;11.83;;;;;;;8.72;100.00;101154.75;5073169;28;20260;-73
2021/10/11 05:38:35;;;;;;;18.03;8.80;;;;;;;8.75;100.00;101160.44;5091085;28;20670;-74
2021/10/11 05:41:01;;;;;;;15.20;11.13;;;;;;;8.79;100.00;101166.13;5072938;28;20174;-74
2021/10/11 05:43:26;;;;;;;17.50;12.97;;;;;;;8.82;100.00;101165.56;5091130;28;20252;-74
2021/10/11 05:45:52;;;;;;;20.60;13.03;;;;;;;8.84;100.00;101166.13;5072574;28;20541;-74
2021/10/11 05:48:17;;;;;;;15.53;10.83;;;;;;;8.87;100.00;101165.56;5072851;28;20268;-74
2021/10/11 05:50:42;;;;;;;16.97;11.97;;;;;;;8.90;100.00;101163.06;5091030;28;20645;-74
2021/10/11 05:53:08;;;;;;;14.07;10.90;;;;;;;8.93;100.00;101176.13;5072849;28;20548;-74
2021/10/11 05:55:33;;;;;;;12.43;10.07;;;;;;;8.97;100.00;101190.03;5090817;28;20308;-74
2021/10/11 05:57:59;;;;;;;14.90;7.43;;;;;;;9.01;100.00;101179.38;5072657;28;20197;-74
2021/10/11 06:00:24;;;;;;;12.80;11.07;;;;;;;9.02;100.00;101186.44;5072572;28;20208;-73
2021/10/11 06:02:50;;;;;;;24.50;14.97;;;;;;;9.02;100.00;101189.97;5072779;28;20223;-74
2021/10/11 06:05:15;;;;;;;16.70;13.47;;;;;;;9.04;100.00;101198.69;5090383;28;20180;-75
2021/10/11 06:07:41;;;;;;;10.30;9.30;;;;;;;9.04;100.00;101184.25;5072528;28;20678;-74
2021/10/11 06:10:07;;;;;;;19.33;13.67;;;;;;;9.03;100.00;101201.69;5090514;28;20783;-74
2021/10/11 06:12:32;;;;;;;15.63;11.80;;;;;;;9.03;100.00;101205.22;5089225;28;20295;-73
2021/10/11 06:14:59;;;;;;;20.93;9.90;;;;;;;9.00;100.00;101191.38;5087927;28;20871;-73
2021/10/11 06:17:24;;;;;;;20.20;13.47;;;;;;;9.01;100.00;101193.00;5090587;28;20689;-72
2021/10/11 06:19:49;;;;;;;23.83;15.60;;;;;;;9.00;100.00;101205.00;5090608;28;20180;-72
2021/10/11 06:22:15;;;;;;;18.63;12.70;;;;;;;8.99;100.00;101227.91;5090616;28;20716;-72
2021/10/11 06:24:40;;;;;;;28.47;13.13;;;;;;;8.97;100.00;101224.59;5072411;28;20180;-72
2021/10/11 06:27:06;;;;;;;20.93;13.73;;;;;;;8.97;100.00;101220.00;5095018;28;20174;-72
2021/10/11 06:29:32;;;;;;;20.73;13.17;;;;;;;8.98;100.00;101231.72;5094780;28;20763;-72
2021/10/11 06:31:57;;;;;;;21.70;14.30;;;;;;;8.99;100.00;101236.06;5094912;28;20673;-74
2021/10/11 06:34:22;;;;;;;12.20;10.93;;;;;;;8.97;100.00;101239.09;5094554;28;20200;-73
2021/10/11 06:36:48;;;;;;;22.17;11.77;;;;;;;8.97;100.00;101249.97;5076369;28;20197;-72
2021/10/11 06:39:14;;;;;;;14.10;10.20;;;;;;;8.98;100.00;101248.06;5076256;28;20232;-72
2021/10/11 06:41:39;;;;;;;8.83;7.97;;;;;;;8.99;100.00;101246.97;5076362;28;20177;-73
2021/10/11 06:44:05;;;;;;;17.57;14.13;;;;;;;9.01;100.00;101240.13;5076096;28;20181;-73
2021/10/11 06:46:31;;;;;;;11.27;10.23;;;;;;;8.99;100.00;101236.88;5094417;28;20515;-72
2021/10/11 06:48:56;;;;;;;16.70;13.13;;;;;;;9.01;100.00;101248.31;5094364;28;20201;-72
2021/10/11 06:51:22;;;;;;;14.43;10.40;;;;;;;9.02;100.00;101273.66;5094229;28;20257;-72
2021/10/11 06:53:47;;;;;;;17.23;12.60;;;;;;;9.03;100.00;101237.94;5094227;28;20622;-72
2021/10/11 06:56:12;;;;;;;23.53;15.80;;;;;;;9.07;100.00;101244.44;5094432;28;20224;-72
2021/10/11 06:58:38;;;;;;;17.73;11.80;;;;;;;9.10;100.00;101248.53;5094135;28;20711;-72
2021/10/11 07:01:03;;;;;;;15.50;12.07;;;;;;;9.13;100.00;101258.88;5094251;28;20201;-72
2021/10/11 07:03:30;;;;;;;25.10;14.60;;;;;;;9.14;100.00;101261.31;5075963;28;20708;-72
2021/10/11 07:05:59;;;;;;;26.07;14.10;;;;;;;9.18;100.00;101262.38;5093766;28;20178;-72
2021/10/11 07:08:24;;;;;;;28.33;16.17;;;;;;;9.20;100.00;101275.72;5075817;28;20178;-72
2021/10/11 07:10:54;;;;;;;20.47;14.00;;;;;;;9.22;100.00;101284.44;5075758;28;20260;-72
2021/10/11 07:13:20;;;;;;;16.30;12.83;;;;;;;9.25;100.00;101279.22;5093973;28;20197;-72
2021/10/11 07:15:45;;;;;;;20.77;15.77;;;;;;;9.30;100.00;101272.13;5075481;28;20205;-72
2021/10/11 07:18:10;;;;;;;18.17;13.47;;;;;;;9.32;100.00;101284.38;5093846;28;20193;-72
2021/10/11 07:20:40;;;;;;;24.20;12.93;;;;;;;9.38;100.00;101280.53;5075667;28;20223;-72
2021/10/11 07:23:06;;;;;;;22.40;14.20;;;;;;;9.43;100.00;101285.16;5093933;28;20645;-73
2021/10/11 07:25:31;;;;;;;10.77;9.73;;;;;;;9.42;100.00;101278.88;5075489;28;20176;-72
2021/10/11 07:27:58;;;;;;;19.83;14.77;;;;;;;9.46;100.00;101293.56;5093727;28;20661;-73
2021/10/11 07:30:23;;;;;;;19.13;12.77;;;;;;;9.49;100.00;101298.47;5093688;28;20177;-76
2021/10/11 07:32:49;;;;;;;27.17;15.43;;;;;;;9.56;100.00;101292.69;5093079;28;20265;-74
2021/10/11 07:35:14;;;;;;;25.63;16.00;;;;;;;9.63;100.00;101308.72;5074830;28;20174;-75
2021/10/11 07:37:39;;;;;;;18.70;13.57;;;;;;;9.69;100.00;101304.84;5092274;28;20209;-74
2021/10/11 07:40:05;;;;;;;18.63;12.50;;;;;;;9.74;100.00;101296.66;5075055;28;20659;-77
2021/10/11 07:42:31;;;;;;;22.70;13.40;;;;;;;9.78;100.00;101289.50;5093333;28;20174;-72
2021/10/11 07:44:56;;;;;;;30.17;14.97;;;;;;;9.86;100.00;101282.66;5093076;28;20177;-72
2021/10/11 07:47:21;;;;;;;16.63;12.90;;;;;;;9.88;100.00;101294.09;5093228;28;20208;-72
2021/10/11 07:49:47;;;;;;;14.90;13.33;;;;;;;9.91;100.00;101318.88;5089983;28;20527;-72
2021/10/11 07:52:12;;;;;;;17.73;13.83;;;;;;;9.94;100.00;101315.59;5090228;28;20691;-73
2021/10/11 07:54:37;;;;;;;21.40;11.70;;;;;;;9.98;100.00;101310.34;5092753;28;20184;-72
2021/10/11 07:57:04;;;;;;;17.87;12.10;;;;;;;9.98;100.00;101308.47;5086601;28;20217;-72
2021/10/11 07:59:29;;;;;;;18.80;13.60;;;;;;;10.04;100.00;101310.06;5080170;28;20178;-72
2021/10/11 08:01:56;;;;;;;20.47;13.47;;;;;;;10.08;100.00;101310.28;5074973;28;20192;-73
2021/10/11 08:04:21;;;;;;;12.80;9.80;;;;;;;10.10;100.00;101341.66;5074770;28;20174;-73
2021/10/11 08:06:46;;;;;;;19.57;13.33;;;;;;;10.14;100.00;101311.88;5092298;28;20239;-72
2021/10/11 08:09:12;;;;;;;16.47;12.87;;;;;;;10.14;100.00;101317.34;5070920;28;20174;-72
2021/10/11 08:11:39;;;;;;;10.93;8.80;;;;;;;10.18;100.00;101355.81;5063089;28;20178;-72
2021/10/11 08:14:05;;;;;;;19.60;12.17;;;;;;;10.20;100.00;101370.00;5067141;28;20614;-72
2021/10/11 08:16:30;;;;;;;12.20;11.00;;;;;;;10.18;100.00;101361.28;5092455;28;20263;-72
2021/10/11 08:18:56;;;;;;;18.00;12.73;;;;;;;10.20;100.00;101329.84;5088190;28;20285;-72
2021/10/11 08:21:21;;;;;;;22.67;12.70;;;;;;;10.23;100.00;101370.25;5086789;28;20182;-72
2021/10/11 08:23:51;;;;;;;18.93;13.63;;;;;;;10.24;100.00;101347.31;5082205;28;20189;-72
2021/10/11 08:26:17;;;;;;;18.67;9.43;;;;;;;10.21;100.00;101342.41;5092208;28;20208;-72
2021/10/11 08:28:42;;;;;;;14.40;12.43;;;;;;;10.22;100.00;101368.63;5086029;28;20213;-72
2021/10/11 08:31:07;;;;;;;14.40;11.43;;;;;;;10.22;100.00;101379.56;5075522;28;20583;-72
2021/10/11 08:33:33;;;;;;;16.03;12.40;;;;;;;10.23;100.00;101370.25;5053889;28;20232;-73
2021/10/11 08:36:01;;;;;;;15.43;11.70;;;;;;;10.27;100.00;101367.75;5053895;28;20182;-73
2021/10/11 08:38:26;;;;;;;12.27;9.87;;;;;;;10.28;100.00;101380.34;5071926;28;20671;-73
2021/10/11 08:40:52;;;;;;;13.50;9.17;;;;;;;10.29;100.00;101373.78;5071843;28;20250;-73
2021/10/11 08:43:17;;;;;;;11.20;9.00;;;;;;;10.26;100.00;101363.41;5071841;28;20166;-73
2021/10/11 08:45:46;;;;;;;14.73;9.77;;;;;;;10.28;100.00;101374.88;5071602;28;20583;-73
2021/10/11 08:48:11;;;;;;;13.80;7.97;;;;;;;10.33;100.00;101372.91;5071691;28;20382;-73
2021/10/11 08:50:36;;;;;;;12.97;11.67;;;;;;;10.40;100.00;101416.28;5053046;28;20182;-73
2021/10/11 08:53:03;;;;;;;12.60;11.33;;;;;;;10.43;100.00;101413.81;5053729;28;20174;-73
2021/10/11 08:55:29;;;;;;;22.80;14.27;;;;;;;10.52;100.00;101443.22;5071292;28;20168;-73
2021/10/11 08:58:07;;;;;;;12.30;9.17;;;;;;;10.54;100.00;101414.50;5053244;28;20736;-73
2021/10/11 09:00:34;;;;;;;22.87;13.50;;;;;;;10.55;100.00;101413.41;5071395;28;20223;-73
2021/10/11 09:03:01;;;;;;;22.00;13.63;;;;;;;10.62;100.00;101424.81;5071578;28;20250;-73
2021/10/11 09:05:36;;;;;;;17.10;13.43;;;;;;;10.63;100.00;101420.19;5071073;28;20178;-73
2021/10/11 09:08:07;;;;;;;17.00;11.80;;;;;;;10.66;100.00;101425.06;5071308;28;20198;-73
2021/10/11 09:10:48;;;;;;;7.43;6.67;;;;;;;10.67;100.00;101416.56;5071311;28;20202;-73
2021/10/11 09:13:14;;;;;;;14.17;11.60;;;;;;;10.67;100.00;101445.81;5053327;28;20703;-74
2021/10/11 09:15:39;;;;;;;20.90;12.67;;;;;;;10.65;100.00;101454.31;5070881;28;20183;-75
2021/10/11 09:18:06;;;;;;;17.43;12.33;;;;;;;10.68;100.00;101418.19;5070971;28;20201;-74
2021/10/11 09:20:36;;;;;;;8.53;7.70;;;;;;;10.70;100.00;101426.09;5053073;28;20235;-74
2021/10/11 09:23:02;;;;;;;16.80;11.47;;;;;;;10.70;100.00;101424.22;5071061;28;20185;-74
2021/10/11 09:25:46;;;;;;;13.27;11.43;;;;;;;10.80;100.00;101442.41;5070656;28;20171;-74
2021/10/11 09:28:18;;;;;;;12.27;10.53;;;;;;;10.86;100.00;101430.34;5070821;28;20174;-75
2021/10/11 09:30:46;;;;;;;11.17;9.53;;;;;;;10.99;100.00;101448.81;5070884;28;20631;-75
2021/10/11 09:33:17;;;;;;;13.00;7.63;;;;;;;11.25;100.00;101421.16;5052735;28;20178;-74
2021/10/11 09:35:44;;;;;;;16.03;10.00;;;;;;;11.51;100.00;101429.88;5070623;28;20178;-74
2021/10/11 09:38:20;;;;;;;9.97;6.47;;;;;;;11.78;100.00;101462.09;5052704;28;20684;-74
2021/10/11 09:40:46;;;;;;;9.43;7.17;;;;;;;11.80;100.00;101474.41;5070744;28;20174;-72
2021/10/11 09:43:14;;;;;;;5.63;4.70;;;;;;;11.79;100.00;101472.78;5052715;28;20641;-74
2021/10/11 09:45:40;;;;;;;6.67;4.20;;;;;;;11.74;100.00;101475.56;5052474;28;20670;-74
2021/10/11 09:48:06;;;;;;;8.27;4.93;;;;;;;11.86;100.00;101467.75;5052670;28;20179;-73
2021/10/11 09:50:32;;;;;;;3.00;2.57;;;;;;;12.00;100.00;101461.53;5052404;28;20560;-74
2021/10/11 09:52:58;;;;;;;9.03;3.57;;;;;;;12.15;100.00;101458.56;5052571;28;20187;-74
2021/10/11 09:55:24;;;;;;;6.53;4.40;;;;;;;12.15;100.00;101461.31;5052307;28;20205;-74
2021/10/11 09:57:49;;;;;;;6.23;3.97;;;;;;;12.24;100.00;101459.53;5070456;28;20252;-73
2021/10/11 10:00:15;;;;;;;8.10;3.37;;;;;;;12.41;100.00;101459.81;5070082;28;20678;-74
2021/10/11 10:02:43;;;;;;;3.90;3.57;;;;;;;12.40;100.00;101444.47;5070446;28;20190;-74
2021/10/11 10:05:16;;;;;;;9.50;6.90;;;;;;;12.49;100.00;101447.34;5052212;28;20277;-74
2021/10/11 10:07:51;;;;;;;8.67;7.07;;;;;;;12.41;100.00;101445.28;5070462;28;20174;-74
2021/10/11 10:10:22;;;;;;;10.53;7.93;;;;;;;12.48;100.00;101448.47;5070433;28;20174;-73
2021/10/11 10:12:52;;;;;;;8.33;7.40;;;;;;;12.66;100.00;101452.28;5052204;28;20179;-74
2021/10/11 10:15:26;;;;;;;3.10;2.90;;;;;;;12.71;100.00;101458.47;5071699;28;20259;-74
2021/10/11 10:18:03;;;;;;;5.37;4.87;;;;;;;12.85;100.00;101454.97;5074709;28;20584;-75
2021/10/11 10:20:29;;;;;;;7.90;4.40;;;;;;;12.94;100.00;101447.66;5080228;28;20716;-74
2021/10/11 10:22:54;;;;;;;8.10;2.83;;;;;;;12.93;100.00;101441.38;5089048;28;20174;-75
2021/10/11 10:25:20;;;;;;;5.43;3.20;;;;;;;13.02;100.00;101442.31;5089882;28;20188;-74
2021/10/11 10:27:48;;;;;;;2.47;2.20;;;;;;;13.07;100.00;101438.66;5090489;28;20176;-75
2021/10/11 10:30:22;;;;;;;2.47;1.17;;;;;;;12.97;100.00;101442.38;5090500;28;20177;-75
2021/10/11 10:32:59;;;;;;;3.33;2.00;;;;;;;12.90;100.00;101441.97;5072234;28;20578;-79
2021/10/11 10:35:30;;;;;;;1.57;1.40;;;;;;;12.84;100.00;101436.88;5090049;28;20177;-74
2021/10/11 10:37:56;;;;;;;3.00;1.83;;;;;;;12.94;100.00;101433.97;5080287;28;20646;-74
2021/10/11 10:40:29;;;;;;;3.17;2.23;;;;;;;12.99;100.00;101437.41;5072143;28;20189;-75
2021/10/11 10:43:09;;;;;;;3.70;1.33;;;;;;;13.06;98.91;101435.09;5090603;28;20174;-75
2021/10/11 10:45:36;;;;;;;5.87;2.77;;;;;;;13.02;99.17;101438.75;5071852;28;20174;-74
2021/10/11 10:48:03;;;;;;;6.17;2.47;;;;;;;12.95;99.51;101427.34;5072096;28;20599;-74
2021/10/11 10:50:32;;;;;;;5.67;2.63;;;;;;;12.97;100.00;101431.41;5090481;28;20261;-73
2021/10/11 10:52:59;;;;;;;2.43;1.90;;;;;;;13.21;100.00;101427.72;5090362;28;20512;-73
2021/10/11 10:55:26;;;;;;;5.50;2.30;;;;;;;13.34;97.49;101441.44;5090147;28;20639;-73
2021/10/11 10:58:00;;;;;;;2.67;2.03;;;;;;;13.55;96.84;101441.81;5090146;28;20201;-74
2021/10/11 11:00:25;;;;;;;3.60;2.33;;;;;;;13.50;95.91;101438.38;5090354;28;20159;-74
2021/10/11 11:02:52;;;;;;;2.30;1.83;;;;;;;13.53;96.06;101435.00;5072121;28;20174;-74
2021/10/11 11:05:19;;;;;;;5.53;2.17;;;;;;;13.40;93.82;101439.38;5071727;28;20174;-73
2021/10/11 11:07:47;;;;;;;6.07;2.37;;;;;;;13.46;94.49;101440.94;5072029;28;20178;-73
2021/10/11 11:10:22;;;;;;;3.73;1.77;;;;;;;13.52;94.29;101438.88;5090176;28;20182;-73
2021/10/11 11:12:58;;;;;;;2.60;1.93;;;;;;;13.37;92.51;101426.28;5091875;28;20629;-73